Home > Products > Valid Products > TAF

000
FTUS43 KMPX 271100 AAA
TAFEAU
TAF AMD
KEAU 271158Z 2712/2812 33007KT P6SM SKC
     FM272200 VRB03KT P6SM SCT200
     FM280400 17003KT P6SM BKN120
     FM281000 14012KT 4SM -SN SCT015 OVC035=



000
FTUS43 KMPX 271100 RRA
TAFAXN
TAF
KAXN 271143Z 2712/2812 VRB03KT P6SM SKC
     FM271800 17007KT P6SM BKN150
     FM280000 15010KT P6SM OVC060
     FM280300 14012KT 4SM -SN SCT015 OVC035
      TEMPO 2803/2807 1SM -SN BKN015
     FM280800 14013KT 6SM -SN OVC050=



000
FTUS43 KMPX 271100 RRA
TAFEAU
TAF
KEAU 271143Z 2712/2812 33007KT P6SM SKC
     FM272200 VRB03KT P6SM SCT200
     FM280400 17003KT P6SM BKN120=



000
FTUS43 KMPX 271100 RRA
TAFRWF
TAF
KRWF 271143Z 2712/2812 VRB03KT P6SM SKC
     FM272000 14006KT P6SM BKN150
     FM280200 14010KT P6SM OVC060
     FM280500 15011KT P6SM VCSH SCT020 OVC040
      TEMPO 2805/2807 3SM -SN BKN030=



000
FTUS43 KMPX 271100 RRA
TAFMSP
TAF
KMSP 271143Z 2712/2818 31006KT P6SM SKC
     FM271800 27004KT P6SM SKC
     FM272100 20004KT P6SM BKN150
     FM280300 15007KT P6SM OVC080
     FM280700 14012KT 5SM -SN SCT015 OVC035
      TEMPO 2807/2811 2SM -SN BKN020
     FM281100 14013KT 6SM -FZDZSN OVC050
     FM281500 14013KT P6SM VCSH OVC050=



000
FTUS43 KMPX 271100 RRA
TAFSTC
TAF
KSTC 271143Z 2712/2812 VRB03KT P6SM SKC
     FM272100 17005KT P6SM BKN150
     FM280400 14012KT 4SM -SN SCT015 OVC035
      TEMPO 2804/2808 1SM -SN BKN020
     FM280900 14013KT 6SM -SN OVC050=



000
FTUS43 KMPX 271000 AAA
TAFEAU
TAF AMD
KEAU 271032Z 2711/2806 33007KT P6SM SKC
     FM272200 VRB03KT P6SM SCT200
     FM280400 17003KT P6SM BKN120=



000
FTUS43 KMPX 270800 AAA
TAFMSP
TAF AMD
KMSP 270854Z 2709/2812 33009KT P6SM SKC
     FM271500 32004KT P6SM SCT200
     FM272200 20004KT P6SM BKN150
     FM280300 15007KT P6SM OVC080
     FM280700 13009KT 3SM -SN BKN025 OVC050=



000
FTUS43 KMPX 270500
TAFAXN
TAF
KAXN 270520Z 2706/2806 34007KT P6SM SKC
     FM271300 VRB03KT P6SM SCT200
     FM271800 17007KT P6SM BKN150
     FM280000 15010KT P6SM OVC060
     FM280400 14012KT 2SM -SN BKN015 OVC030=



000
FTUS43 KMPX 270500
TAFEAU
TAF
KEAU 270520Z 2706/2806 33008KT P6SM SCT050 OVC080
      TEMPO 2706/2707 6SM -SN
     FM271000 32006KT P6SM SKC
     FM272200 VRB03KT P6SM SCT200
     FM280400 17003KT P6SM BKN120=



000
FTUS43 KMPX 270500
TAFRWF
TAF
KRWF 270520Z 2706/2806 32009KT P6SM SKC
     FM271500 VRB03KT P6SM SCT200
     FM272000 14006KT P6SM BKN150
     FM280200 14010KT P6SM OVC060
     FM280500 15011KT 5SM -SN BKN020 OVC040=



000
FTUS43 KMPX 270500
TAFSTC
TAF
KSTC 270520Z 2706/2806 34007KT P6SM SKC
     FM271600 VRB03KT P6SM SCT200
     FM272200 17005KT P6SM BKN150
     FM280300 15006KT P6SM OVC060=



000
FTUS43 KMPX 270500
TAFMSP
TAF
KMSP 270520Z 2706/2812 33009KT P6SM SKC
     FM271500 32004KT P6SM SCT200
     FM272200 20004KT P6SM BKN150
     FM280300 15007KT P6SM OVC080
     FM280700 13009KT 3SM -SN BKN025 OVC050=



000
FTUS43 KMPX 270300 AAA
TAFEAU
TAF AMD
KEAU 270305Z 2703/2724 33007KT P6SM OVC023
     FM270600 34007KT P6SM SCT026 OVC080
     FM271200 32006KT P6SM SKC
     FM272200 VRB03KT P6SM SCT200=



000
FTUS43 KMPX 270200 AAC
TAFRWF
TAF AMD
KRWF 270258Z 2703/2724 33013G20KT 6SM -SN SCT027 BKN090
     FM270600 32007KT P6SM SCT080
     FM271500 VRB03KT P6SM SCT200
     FM272000 14007KT P6SM BKN150=



000
FTUS43 KMPX 270200 AAB
TAFMSP
TAF AMD
KMSP 270257Z 2703/2806 33013KT P6SM -SN FEW026 OVC070
     FM270500 33011KT P6SM SCT080
     FM271500 32004KT P6SM SCT200
     FM272200 20004KT P6SM BKN150=



000
FTUS43 KMPX 270200 AAB
TAFRWF
TAF AMD
KRWF 270205Z 2702/2724 33013G20KT 6SM -SN SCT009 BKN025 OVC080
      TEMPO 2702/2704 4SM BLSN
     FM270400 32011KT P6SM SCT025 BKN080
     FM270600 32007KT P6SM SCT080
     FM271500 VRB03KT P6SM SCT200
     FM272000 14007KT P6SM BKN150=



000
FTUS43 KMPX 270000 AAA
TAFRWF
TAF AMD
KRWF 270027Z 2700/2724 33013KT P6SM BKN008 OVC100
     FM270400 32011KT P6SM SCT008 BKN080
     FM270600 32007KT P6SM SKC
     FM271500 VRB03KT P6SM SCT200
     FM272000 14007KT P6SM BKN150=



000
FTUS43 KMPX 270000 AAA
TAFMSP
TAF AMD
KMSP 270026Z 2700/2806 32011KT P6SM OVC023
     FM270400 32010KT P6SM SCT026 BKN100
     FM271500 31004KT P6SM SCT200
     FM272200 20004KT P6SM BKN150=



000
FTUS43 KMPX 262300
TAFSTC
TAF
KSTC 262331Z 2700/2724 34010KT P6SM OVC100
     FM270400 33006KT P6SM SKC
     FM271600 VRB03KT P6SM SCT200
     FM272100 17005KT P6SM BKN150=



000
FTUS43 KMPX 262300
TAFMSP
TAF
KMSP 262331Z 2700/2806 35011KT P6SM SCT025 OVC060
     FM270400 32010KT P6SM SCT080
     FM271500 31004KT P6SM SCT200
     FM272200 20004KT P6SM BKN150=



000
FTUS43 KMPX 262300
TAFRWF
TAF
KRWF 262331Z 2700/2724 33013KT P6SM SCT018 OVC070
     FM270300 32011KT P6SM BKN100
     FM270600 32007KT P6SM SKC
     FM271500 VRB03KT P6SM SCT200
     FM272000 14007KT P6SM BKN150=



000
FTUS43 KMPX 262300
TAFEAU
TAF
KEAU 262331Z 2700/2724 32007KT P6SM SCT023 OVC045
      TEMPO 2700/2703 6SM -SN BKN023
     FM270300 33009KT P6SM SCT045 OVC080
     FM270600 34007KT P6SM BKN100
     FM271200 32006KT P6SM SKC
     FM272200 VRB03KT P6SM SCT200=



000
FTUS43 KMPX 262300
TAFAXN
TAF
KAXN 262331Z 2700/2724 33012KT P6SM SCT100
     FM270400 34007KT P6SM SKC
     FM271300 VRB03KT P6SM SCT200
     FM271800 17007KT P6SM BKN150=



000
FTUS43 KMPX 262100 AAA
TAFEAU
TAF AMD
KEAU 262146Z 2622/2718 35006KT 3SM -SN SCT015 OVC030
      TEMPO 2622/2624 1 1/2SM -SN BKN015 OVC030
     FM270100 32011KT P6SM OVC025
     FM270700 32009KT P6SM SCT025=



000
FTUS43 KMPX 262000 AAB
TAFMSP
TAF AMD
KMSP 262040Z 2621/2724 36010KT P6SM SCT020 BKN040 OVC090
      TEMPO 2621/2623 BKN025 OVC040
     FM262300 36011KT P6SM SCT025 BKN050
     FM270400 32010KT P6SM SCT035
     FM271500 31004KT P6SM SCT250=



000
FTUS43 KMPX 262000 AAA
TAFSTC
TAF AMD
KSTC 262014Z 2620/2718 36010KT P6SM SCT025 SCT100
     FM270100 33007KT P6SM SCT050
     FM270400 33004KT P6SM SKC
     FM271600 VRB02KT P6SM SCT200=



000
FTUS43 KMPX 261800 AAA
TAFMSP
TAF AMD
KMSP 261820Z 2618/2724 01008KT 3SM -SN BR SCT015 OVC025
      TEMPO 2619/2621 1 1/2SM -SN BKN015 OVC030
     FM262100 36011KT 6SM -SN BKN018 OVC025
     FM262200 33011G18KT P6SM BKN025
     FM270400 32010KT P6SM SCT035
     FM271500 31004KT P6SM SCT250=



000
FTUS43 KMPX 261700
TAFEAU
TAF
KEAU 261723Z 2618/2718 04005KT P6SM SCT020 OVC050
     FM261900 01006KT 2SM -SN BKN015 OVC025
     FM270100 32011KT P6SM OVC025
     FM270700 32009KT P6SM SCT025=



000
FTUS43 KMPX 261700
TAFSTC
TAF
KSTC 261723Z 2618/2718 01011KT P6SM SCT015 BKN025
     FM261900 36011G17KT P6SM BKN018 BKN025
     FM262200 34010KT P6SM SCT025 BKN050
     FM270100 33007KT P6SM SCT050
     FM270400 33004KT P6SM SKC
     FM271600 VRB02KT P6SM SCT200=



000
FTUS43 KMPX 261700
TAFMSP
TAF
KMSP 261723Z 2618/2724 01008KT 2SM -SN BR OVC015
     FM261900 36011KT 6SM -SN OVC018
     FM262200 33011G18KT P6SM BKN025
     FM270400 32010KT P6SM SCT035
     FM271500 31004KT P6SM SCT250=



000
FTUS43 KMPX 261700
TAFAXN
TAF
KAXN 261723Z 2618/2718 36013G20KT P6SM BKN015
     FM262000 34012KT P6SM SCT020 BKN050
     FM270000 34007KT P6SM SKC
     FM271500 14003KT P6SM BKN150=



000
FTUS43 KMPX 261700
TAFRWF
TAF
KRWF 261723Z 2618/2718 34012G22KT 6SM BLSN SCT015 OVC030
     FM261900 32012G22KT 6SM BLSN BKN012
     FM270100 32010KT P6SM SCT025
     FM270500 32005KT P6SM SKC
     FM271600 VRB03KT P6SM BKN200=



000
FTUS43 KMPX 261400 AAB
TAFMSP
TAF AMD
KMSP 261450Z 2615/2718 02008KT 1SM -SN BR SCT015 OVC025
      TEMPO 2615/2618 1/2SM SN FG BKN015
     FM261900 34011KT 5SM -SN OVC020
     FM262200 31012KT P6SM BKN025
     FM270600 32010KT P6SM SKC=



000
FTUS43 KMPX 261400 AAA
TAFSTC
TAF AMD
KSTC 261400Z 2614/2712 01009KT 5SM -SN BR SCT025 BKN040
     FM261800 35010KT P6SM -SN OVC025
     FM262100 33010KT P6SM SCT018 BKN040
     FM270000 33008KT P6SM SCT050=



000
FTUS43 KMPX 261300 AAA
TAFAXN
TAF AMD
KAXN 261359Z 2614/2712 02011KT P6SM SCT015 BKN040
     FM261600 36013KT P6SM BKN025
     FM262000 34014KT P6SM SCT035 BKN080
     FM270000 34008KT P6SM SKC=



000
FTUS43 KMPX 261300 AAA
TAFMSP
TAF AMD
KMSP 261358Z 2614/2718 02008KT 1SM -SN BR SCT015 OVC025
      TEMPO 2614/2618 1/2SM SN FG BKN015
     FM261900 34011KT 5SM -SN OVC020
     FM270000 31012KT P6SM BKN025
     FM270400 32010KT P6SM SKC=



000
FTUS43 KMPX 261100
TAFMSP
TAF
KMSP 261135Z 2612/2718 08009KT 5SM -SN BR SCT015 BKN025 OVC045
      TEMPO 2612/2614 2SM -SN
     FM261400 04007KT 2SM -SN BR SCT005 OVC015
      TEMPO 2614/2618 3/4SM -SN BR OVC005
     FM261900 33011KT 5SM -SN OVC020
     FM270000 31012KT P6SM BKN025
     FM270400 32010KT P6SM SKC=



000
FTUS43 KMPX 261100
TAFRWF
TAF
KRWF 261135Z 2612/2712 04007KT 2SM -SN BR SCT008 OVC015
      TEMPO 2612/2615 3/4SM -SN
     FM261700 34013G22KT 4SM -SN BLSN SCT009 OVC012
     FM262000 32012G20KT 6SM BLSN BKN012
     FM262300 32011KT P6SM SCT035=



000
FTUS43 KMPX 261100
TAFEAU
TAF
KEAU 261135Z 2612/2712 07006KT P6SM SCT035 BKN060
     FM262100 36006KT 4SM -SN BKN025 BKN050
     FM270100 32009KT P6SM OVC025
     FM270400 31008KT P6SM SCT025=



000
FTUS43 KMPX 261100
TAFAXN
TAF
KAXN 261135Z 2612/2712 02011KT P6SM SCT008 OVC020
      TEMPO 2612/2614 5SM -SN
     FM261500 36013KT P6SM BKN025 BKN080
     FM261800 34014KT P6SM SCT035 BKN080
     FM270000 34008KT P6SM SKC=



000
FTUS43 KMPX 261100
TAFSTC
TAF
KSTC 261135Z 2612/2712 03007KT P6SM -SN BKN025 OVC035
      TEMPO 2612/2615 3SM -SN
     FM261500 01009KT 5SM -SN BR OVC025
     FM261800 35010KT P6SM -SN OVC015
     FM262100 33010KT P6SM SCT018 BKN040
     FM270000 33008KT P6SM SCT050=



000
FTUS43 KMPX 261000 AAC
TAFMSP
TAF AMD
KMSP 261026Z 2610/2712 09008KT P6SM -SN SCT015 BKN025 OVC050
     FM261200 06008KT 4SM -SN BKN025 OVC040
      TEMPO 2612/2614 2SM -SN
     FM261400 04007KT 2SM -SN BR OVC015
      TEMPO 2615/2619 3/4SM -SN BR OVC005
     FM262000 33011KT 6SM -SN OVC018
     FM270000 31012G19KT P6SM BKN018
     FM270400 32010KT P6SM SKC=



000
FTUS43 KMPX 261000 AAB
TAFAXN
TAF AMD
KAXN 261006Z 2610/2706 02011KT P6SM -SN SCT025 BKN040
     FM261400 36013KT 6SM -SN OVC012
     FM261800 34014KT P6SM SCT012 BKN050
     FM270000 34008KT P6SM SKC=



000
FTUS43 KMPX 261000 AAB
TAFAXN
TAF AMD
KAXN 261006Z 2610/2706 02011KT P6SM -SN SCT025 BKN040
     FM261400 36013KT 6SM -SN OVC012
     FM261800 34014KT P6SM SCT012 BKN050
     FM270000 34008KT P6SM SKC=



000
FTUS43 KMPX 261000 AAA
TAFSTC
TAF AMD
KSTC 261004Z 2610/2706 04008KT P6SM -SN SCT015 BKN035 OVC050
      TEMPO 2611/2615 3SM -SN
     FM261500 01009KT 2SM -SN BR OVC015
     FM261800 35010KT 6SM -SN OVC015
     FM262100 33010KT P6SM OVC018
     FM270000 33010KT P6SM SCT050=



000
FTUS43 KMPX 261000 AAA
TAFSTC
TAF AMD
KSTC 261004Z 2610/2706 04008KT P6SM -SN SCT015 BKN035 OVC050
      TEMPO 2611/2615 3SM -SN
     FM261500 01009KT 2SM -SN BR OVC015
     FM261800 35010KT 6SM -SN OVC015
     FM262100 33010KT P6SM OVC018
     FM270000 33010KT P6SM SCT050=



000
FTUS43 KMPX 260900 AAB
TAFMSP
TAF AMD
KMSP 260959Z 2610/2712 09008KT P6SM -SN SCT015 BKN035 OVC050
     FM261200 06008KT 4SM -SN BKN025 OVC040
     FM261400 04007KT 2SM -SN BR OVC015
      TEMPO 2615/2619 3/4SM -SN BR OVC005
     FM262000 33011KT 6SM -SN OVC018
     FM270000 31012G19KT P6SM BKN018
     FM270400 32010KT P6SM SKC=



000
FTUS43 KMPX 260900 AAB
TAFMSP
TAF AMD
KMSP 260959Z 2610/2712 09008KT P6SM -SN SCT015 BKN035 OVC050
     FM261200 06008KT 4SM -SN BKN025 OVC040
     FM261400 04007KT 2SM -SN BR OVC015
      TEMPO 2615/2619 3/4SM -SN BR OVC005
     FM262000 33011KT 6SM -SN OVC018
     FM270000 31012G19KT P6SM BKN018
     FM270400 32010KT P6SM SKC=



000
FTUS43 KMPX 260800 AAA
TAFMSP
TAF AMD
KMSP 260849Z 2609/2712 11008KT P6SM OVC050
     FM261200 06008KT 4SM -SN BKN025 OVC040
     FM261400 04007KT 2SM -SN BR OVC015
      TEMPO 2615/2619 3/4SM -SN BR OVC005
     FM262000 33011KT 6SM -SN OVC018
     FM270000 31012G19KT P6SM BKN018
     FM270400 32010KT P6SM SKC=



000
FTUS43 KMPX 260700 AAA
TAFAXN
TAF AMD
KAXN 260720Z 2607/2706 09008KT P6SM OVC035
     FM260800 05009KT 6SM -SN BR OVC035
     FM261030 02010KT 2SM -SN BR OVC012
     FM261400 36013KT 6SM -SN OVC012
     FM261900 34014KT P6SM SCT012 BKN050
     FM270000 34008KT P6SM SKC=



000
FTUS43 KMPX 260500 CCC
TAFRWF
TAF COR
KRWF 260559Z 2606/2706 11008KT 1 1/2SM -SN BR OVC012
     FM261700 34013G24KT 4SM -SN BLSN OVC012
     FM262000 32012G21KT 6SM BLSN BKN012
     FM270100 32012KT P6SM SKC=



000
FTUS43 KMPX 260500 CCB
TAFRWF
TAF COR
KRWF 260537Z 2606/2706 13010KT 2SM -SN OVC015
     FM260900 11008KT 1 1/2SM -SN BR OVC012
     FM261700 34013G24KT 4SM -SN BLSN OVC012
     FM262000 32012G21KT 6SM BLSN BKN012
     FM270100 32012KT P6SM SKC=



000
FTUS43 KMPX 260500 CCA
TAFRWF
TAF COR
KRWF 260535Z 2606/2706 13010KT 3SM -SN OVC015
     FM260900 11008KT 1 1/2SM -SN BR OVC012
     FM261700 34013G24KT 4SM -SN BLSN OVC012
     FM262000 32012G21KT 6SM BLSN BKN012
     FM270100 32012KT P6SM SKC=



000
FTUS43 KMPX 260500
TAFRWF
TAF
KRWF 260533Z 2606/2706 13009KT P6SM OVC060
     FM260630 12010KT 2SM -SN SCT015 OVC022
     FM260900 11008KT 1 1/2SM -SN BR OVC012
     FM261700 34013G24KT 4SM -SN BLSN OVC012
     FM262000 32012G21KT 6SM BLSN BKN012
     FM270100 32012KT P6SM SKC=



000
FTUS43 KMPX 260500
TAFMSP
TAF
KMSP 260533Z 2606/2712 10008KT P6SM OVC050
     FM261200 05007KT 4SM -SN BKN025 OVC040
     FM261400 03007KT 2SM -SN BR OVC015
      TEMPO 2615/2619 3/4SM -SN BR OVC005
     FM262000 33011KT 6SM -SN OVC018
     FM270000 31012G19KT P6SM BKN018
     FM270400 32010KT P6SM SKC=



000
FTUS43 KMPX 260500
TAFSTC
TAF
KSTC 260533Z 2606/2706 10007KT P6SM OVC050
     FM261100 04007KT 2SM -SN BR OVC015
     FM261800 35010KT 6SM -SN OVC015
     FM262100 33010KT P6SM OVC018
     FM270000 33010KT P6SM SCT050=



000
FTUS43 KMPX 260500
TAFEAU
TAF
KEAU 260533Z 2606/2706 VRB03KT P6SM OVC050
     FM262300 32007KT 4SM -SN OVC025
     FM270200 32009KT P6SM OVC025=



000
FTUS43 KMPX 260500
TAFAXN
TAF
KAXN 260533Z 2606/2706 09008KT P6SM OVC035
     FM260800 05011KT 2SM -SN BR OVC012
     FM261400 36013KT 6SM -SN OVC012
     FM261900 34014KT P6SM SCT012 BKN050
     FM270000 34008KT P6SM SKC=



000
FTUS43 KMPX 260400 AAA
TAFRWF
TAF AMD
KRWF 260401Z 2604/2624 14008KT P6SM OVC050
     FM260600 13009KT 4SM -SN OVC025
     FM260800 11008KT 1 1/2SM -SN BR OVC010
      TEMPO 2609/2613 1/2SM SN FG VV003
     FM261500 36013G24KT 2SM -SN BLSN OVC008
     FM262000 33013G25KT 5SM -SN BLSN OVC012=



000
FTUS43 KMPX 260400 AAA
TAFAXN
TAF AMD
KAXN 260401Z 2604/2624 09008KT P6SM OVC035
     FM260600 08009KT 4SM -SN OVC020
     FM260800 07010KT 2SM -SN BR OVC012
     FM261400 36014KT 6SM -SN OVC012
     FM261800 34014KT P6SM BKN012
     FM262200 34012KT P6SM FEW012=



000
FTUS43 KMPX 260400 AAA
TAFAXN
TAF AMD
KAXN 260401Z 2604/2624 09008KT P6SM OVC035
     FM260600 08009KT 4SM -SN OVC020
     FM260800 07010KT 2SM -SN BR OVC012
     FM261400 36014KT 6SM -SN OVC012
     FM261800 34014KT P6SM BKN012
     FM262200 34012KT P6SM FEW012=



000
FTUS43 KMPX 260400 AAA
TAFRWF
TAF AMD
KRWF 260401Z 2604/2624 14008KT P6SM OVC050
     FM260600 13009KT 4SM -SN OVC025
     FM260800 11008KT 1 1/2SM -SN BR OVC010
      TEMPO 2609/2613 1/2SM SN FG VV003
     FM261500 36013G24KT 2SM -SN BLSN OVC008
     FM262000 33013G25KT 5SM -SN BLSN OVC012=



000
FTUS43 KMPX 260300 AAA
TAFMSP
TAF AMD
KMSP 260338Z 2604/2706 13006KT P6SM OVC050
     FM261100 07007KT 5SM -SN BKN025 OVC040
     FM261400 04007KT 2SM -SN BR OVC015
      TEMPO 2614/2618 1SM -SN BR OVC006
     FM262000 34009KT 6SM -SN OVC018
     FM270000 31012G20KT P6SM BKN018=



000
FTUS43 KMPX 252300
TAFRWF
TAF
KRWF 252328Z 2600/2624 14008KT P6SM OVC035
     FM260400 13009KT 4SM -SN OVC025
     FM260600 11008KT 1 1/2SM -SN BR OVC010
      TEMPO 2609/2613 1/2SM SN FG VV003
     FM261500 36013G24KT 2SM -SN BLSN OVC008
     FM262000 33013G25KT 5SM -SN BLSN OVC012=



000
FTUS43 KMPX 252300
TAFAXN
TAF
KAXN 252328Z 2600/2624 15008KT P6SM OVC035
     FM260400 10009KT 4SM -SN OVC020
     FM260600 07010KT 2SM -SN BR OVC012
     FM261400 36014KT 6SM -SN OVC012
     FM261800 34014KT P6SM BKN012
     FM262200 34012KT P6SM FEW012=



000
FTUS43 KMPX 252300
TAFEAU
TAF
KEAU 252328Z 2600/2624 13003KT P6SM OVC050
     FM262000 36004KT 4SM -SN OVC025=



000
FTUS43 KMPX 252300
TAFMSP
TAF
KMSP 252328Z 2600/2706 13006KT P6SM OVC050
     FM261100 07007KT 5SM -SN BKN025 OVC040
     FM261400 04007KT 2SM -SN BR OVC015
     FM262000 34009KT 6SM -SN OVC018
     FM270000 31012G20KT P6SM BKN018=



000
FTUS43 KMPX 252300
TAFSTC
TAF
KSTC 252328Z 2600/2624 13005KT P6SM OVC040
     FM260600 10005KT 6SM -SN BKN025 OVC050
     FM261000 04007KT 2SM -SN BR OVC018
     FM261700 35010KT 6SM -SN OVC012
     FM262200 33010KT P6SM SCT015=



000
FTUS43 KMPX 252000 AAA
TAFMSP
TAF AMD
KMSP 252049Z 2521/2624 17005KT P6SM OVC050
     FM260000 14006KT P6SM BKN050 OVC100
     FM261100 06007KT 5SM -SN BR BKN035 OVC060
     FM261400 05008KT 2SM -SN BR OVC022
     FM262000 34008KT 6SM -SN BR OVC018=



000
FTUS43 KMPX 251700
TAFAXN
TAF
KAXN 251734Z 2518/2618 19006KT P6SM BKN035 OVC070
     FM252200 14008KT P6SM SCT020 OVC080
     FM260500 10009KT 4SM -SN OVC020
     FM260800 08007KT 2SM -SN OVC015
     FM261300 02015KT 6SM -SN OVC012=



000
FTUS43 KMPX 251700
TAFMSP
TAF
KMSP 251734Z 2518/2624 24004KT P6SM OVC040
     FM252000 17005KT P6SM BKN040
     FM260000 14006KT P6SM BKN050 OVC100
     FM261100 06007KT 5SM -SN BR BKN035 OVC060
     FM261400 05008KT 2SM -SN BR OVC022
     FM262000 34008KT 6SM -SN BR OVC018=



000
FTUS43 KMPX 251700
TAFSTC
TAF
KSTC 251734Z 2518/2618 18005KT P6SM SCT025 OVC040
      TEMPO 2518/2520 BKN025
     FM252300 14004KT P6SM SCT035 OVC080
     FM260700 08005KT 6SM -SN BR BKN025 OVC050
     FM261000 03007KT 2SM -SN BR OVC018
     FM261600 36006KT 4SM -SN OVC012=



000
FTUS43 KMPX 251700
TAFRWF
TAF
KRWF 251734Z 2518/2618 19007KT P6SM BKN050 OVC080
     FM252200 16008KT P6SM SCT025 OVC080
     FM260400 13009KT 4SM -SN OVC025
     FM260700 08007KT 1 1/2SM -SN OVC015
      TEMPO 2609/2613 3/4SM -SN VV007
     FM261400 02011KT 2SM -SN OVC012=



000
FTUS43 KMPX 251700
TAFEAU
TAF
KEAU 251734Z 2518/2618 24006KT P6SM BKN016
     FM251900 22005KT P6SM SCT018 BKN060
     FM260000 15003KT P6SM SCT050 BKN100
     FM261000 09004KT P6SM OVC050
     FM261400 07005KT 4SM -SN BR OVC035=



000
FTUS43 KMPX 251400 AAA
TAFMSP
TAF AMD
KMSP 251458Z 2515/2618 27005KT P6SM SCT050
     FM251600 23007KT P6SM SCT030 OVC050
     FM252000 18005KT P6SM OVC040
     FM260000 15005KT P6SM SCT035 OVC150
     FM261300 08006KT 6SM -SN BR BKN035 OVC060
     FM261500 06008KT 3SM -SN BR OVC025=



000
FTUS43 KMPX 251100 CCA
TAFEAU
TAF COR
KEAU 251149Z 2512/2612 32009KT P6SM -SN OVC018
     FM251500 30007KT P6SM -SN BKN020 OVC040
     FM251700 26005KT P6SM SCT020 BKN050
     FM260000 15003KT P6SM SCT050 BKN120
     FM261000 09004KT P6SM OVC100=



000
FTUS43 KMPX 251100
TAFRWF
TAF
KRWF 251138Z 2512/2612 29008KT P6SM OVC050
     FM251600 24006KT P6SM BKN035 OVC070
     FM260000 14005KT P6SM SCT020 OVC080
     FM260600 10009KT 4SM -SN OVC020
     FM260800 08007KT 2SM -SN OVC015=



000
FTUS43 KMPX 251100
TAFMSP
TAF
KMSP 251138Z 2512/2618 30008KT P6SM FEW020
     FM251600 23007KT P6SM SCT020 BKN040
     FM252000 18005KT P6SM BKN040
     FM260000 15005KT P6SM SCT035 OVC150
     FM261300 08006KT 6SM -SN BR BKN035 OVC060
     FM261500 06008KT 3SM -SN BR OVC025=



000
FTUS43 KMPX 251100
TAFAXN
TAF
KAXN 251138Z 2512/2612 28007KT P6SM OVC050
     FM251300 24005KT P6SM BKN030 OVC040
     FM251700 18006KT P6SM OVC020
     FM252300 14007KT P6SM SCT025 OVC050
     FM260300 10009KT 5SM -SN BR OVC025
     FM260800 05012KT 2SM -SN BR OVC015=



000
FTUS43 KMPX 251100
TAFEAU
TAF
KEAU 251138Z 2512/2612 29009KT P6SM BKN020
     FM251500 26005KT P6SM SCT020 BKN050
     FM260000 15003KT P6SM SCT050 BKN120
     FM261000 09004KT P6SM OVC100=



000
FTUS43 KMPX 251100
TAFSTC
TAF
KSTC 251138Z 2512/2612 30005KT P6SM SCT050
     FM251300 28005KT P6SM OVC050
     FM251600 23004KT P6SM BKN035
     FM252300 VRB03KT P6SM BKN025 OVC050
     FM260800 08005KT 6SM -SN BR BKN030 OVC050
     FM261000 06006KT 2SM -SN BR OVC025=



000
FTUS43 KMPX 250800 AAA
TAFMSP
TAF AMD
KMSP 250849Z 2509/2612 30008KT P6SM FEW020
     FM251345 28007KT P6SM SCT020 BKN040
     FM252000 21004KT P6SM BKN040
     FM260000 15004KT P6SM SCT035 OVC120=



000
FTUS43 KMPX 250800 AAA
TAFEAU
TAF AMD
KEAU 250819Z 2508/2606 31010KT P6SM -SN OVC020
     FM251200 29009KT P6SM SCT020 BKN050
     FM251400 26005KT P6SM SCT050
     FM260000 VRB03KT P6SM SCT050 BKN120=



000
FTUS43 KMPX 250800 AAA
TAFRWF
TAF AMD
KRWF 250816Z 2508/2606 31009KT P6SM FEW090
     FM251100 29008KT P6SM OVC050
     FM251600 24006KT P6SM BKN035
     FM260000 14005KT P6SM SCT020 OVC080=



000
FTUS43 KMPX 250800 AAA
TAFSTC
TAF AMD
KSTC 250815Z 2508/2606 31009KT P6SM FEW050
     FM251200 28005KT P6SM OVC050
     FM251600 23004KT P6SM BKN035
     FM252300 VRB03KT P6SM BKN025 OVC100=



000
FTUS43 KMPX 250800 AAA
TAFAXN
TAF AMD
KAXN 250813Z 2508/2606 31009KT P6SM FEW050
     FM250930 28007KT P6SM OVC050
     FM251300 24005KT P6SM BKN020 OVC040
     FM252100 VRB03KT P6SM OVC020=



000
FTUS43 KMPX 250500
TAFMSP
TAF
KMSP 250531Z 2506/2612 30013KT P6SM SCT022
     FM251000 28007KT P6SM FEW050
     FM252000 21004KT P6SM BKN040
     FM260000 15004KT P6SM SCT035 OVC120=



000
FTUS43 KMPX 250500
TAFSTC
TAF
KSTC 250531Z 2506/2606 31009KT P6SM FEW050
     FM251600 23004KT P6SM BKN035
     FM252300 VRB03KT P6SM BKN025 OVC100=



000
FTUS43 KMPX 250500
TAFAXN
TAF
KAXN 250531Z 2506/2606 31009KT P6SM FEW050
     FM251300 24005KT P6SM BKN020
     FM252100 VRB03KT P6SM OVC020=



000
FTUS43 KMPX 250500
TAFRWF
TAF
KRWF 250531Z 2506/2606 31013G22KT P6SM SKC
     FM250900 29008KT P6SM FEW050
     FM251600 24006KT P6SM BKN035
     FM260000 14005KT P6SM SCT020 OVC080=



000
FTUS43 KMPX 250500
TAFEAU
TAF
KEAU 250531Z 2506/2606 30009KT P6SM SCT017 OVC023
     FM251400 26005KT P6SM SCT050
     FM260000 VRB03KT P6SM SCT050 BKN120=



000
FTUS43 KMPX 250300 AAA
TAFSTC
TAF AMD
KSTC 250301Z 2503/2524 32012KT P6SM FEW015
     FM250500 31010KT P6SM FEW050
     FM251700 24004KT P6SM BKN040
     FM252200 VRB03KT P6SM BKN020=



000
FTUS43 KMPX 250200 AAA
TAFMSP
TAF AMD
KMSP 250259Z 2503/2606 31015G22KT P6SM OVC025
     FM250500 30013KT P6SM SCT025
     FM251200 27005KT P6SM FEW050 SCT100
     FM252000 21004KT P6SM BKN040
     FM260000 14004KT P6SM BKN030=



000
FTUS43 KMPX 250200 AAA
TAFAXN
TAF AMD
KAXN 250222Z 2502/2524 32016KT P6SM FEW009
     FM250300 31011KT P6SM FEW050
     FM251500 23004KT P6SM OVC020
     FM252100 VRB03KT P6SM OVC012=



000
FTUS43 KMPX 242300 CCA
TAFRWF
TAF COR
KRWF 242359Z 2500/2524 32016G28KT P6SM SCT015
     FM250200 31013G22KT P6SM SKC
     FM250900 28006KT P6SM FEW050
     FM251800 20005KT P6SM OVC020=



000
FTUS43 KMPX 242300 RRA
TAFMSP
TAF
KMSP 242341Z 2500/2606 31016G25KT P6SM OVC025
     FM250600 30013KT P6SM SCT025
     FM251200 27005KT P6SM FEW050 SCT100
     FM252000 21004KT P6SM BKN040
     FM260000 14004KT P6SM BKN030=



000
FTUS43 KMPX 242300 RRA
TAFSTC
TAF
KSTC 242341Z 2500/2524 32014G22KT P6SM OVC023
      TEMPO 2501/2504 OVC017
     FM250500 31010KT P6SM FEW050
     FM251700 24004KT P6SM BKN040
     FM252200 VRB03KT P6SM BKN020=



000
FTUS43 KMPX 242300 RRA
TAFRWF
TAF
KRWF 242341Z 2500/2524 32016G28KT P6SM OVC017
     FM250200 31013G22KT P6SM SKC
     FM250900 28006KT P6SM FEW050
     FM251800 20005KT P6SM OVC020=



000
FTUS43 KMPX 242300 RRA
TAFAXN
TAF
KAXN 242341Z 2500/2524 32016G24KT P6SM BKN012
     FM250300 31011KT P6SM FEW050
     FM251500 23004KT P6SM OVC020
     FM252100 VRB03KT P6SM OVC012=



000
FTUS43 KMPX 242300 RRA
TAFEAU
TAF
KEAU 242341Z 2500/2524 30013G20KT 6SM -SHSN OVC020
      TEMPO 2500/2504 OVC015
     FM250700 29009KT P6SM OVC020
     FM251400 27005KT P6SM SCT050=



000
FTUS43 KMPX 242000 AAA
TAFSTC
TAF AMD
KSTC 242038Z 2421/2518 32017G26KT P6SM SCT019 OVC030
     FM250000 31016KT P6SM OVC025
     FM250400 30012KT P6SM SCT020
     FM251100 30005KT P6SM SCT120=



000
FTUS43 KMPX 242000 AAA
TAFAXN
TAF AMD
KAXN 242036Z 2421/2518 33020G26KT P6SM -SN OVC025
     FM242300 32014G24KT P6SM FEW020
     FM250400 31010KT P6SM SCT100
     FM251400 26005KT P6SM OVC040=



000
FTUS43 KMPX 242000 AAA
TAFMSP
TAF AMD
KMSP 242034Z 2421/2524 30018G28KT P6SM OVC020
     FM242055 30018G27KT 6SM -SN OVC020
     FM242120 30018G27KT 2SM -SN OVC015
     FM242200 31017G26KT P6SM -SN OVC018
     FM242300 31016G25KT P6SM BKN025
     FM250400 31014KT P6SM SCT025
     FM251200 26005KT P6SM SCT100
     FM251900 21006KT P6SM BKN040=



000
FTUS43 KMPX 241900 AAA
TAFEAU
TAF AMD
KEAU 241918Z 2419/2518 30018G24KT 1 1/2SM -SN OVC015
     FM242300 31017G24KT 5SM -SHSN OVC015
     FM250300 29009KT P6SM OVC015
     FM251200 26007KT P6SM SCT100=



000
FTUS43 KMPX 241900 AAA
TAFRWF
TAF AMD
KRWF 241914Z 2419/2518 33021G35KT 2SM -SN BKN016 OVC030
     FM242300 32016G24KT P6SM OVC024
     FM250100 32016G25KT P6SM SCT025
     FM251000 28006KT P6SM SCT100
     FM251600 24007KT P6SM BKN040=



000
FTUS43 KMPX 241723
TAFMSP
TAF
KMSP 241723Z 2418/2524 31015G22KT P6SM OVC018
      TEMPO 2418/2421 2SM -SN OVC015
     FM242300 31015G23KT P6SM OVC018
     FM250400 31014KT P6SM SCT020
     FM251200 26005KT P6SM SCT100
     FM251900 21006KT P6SM BKN040=



000
FTUS43 KMPX 241723
TAFRWF
TAF
KRWF 241723Z 2418/2518 33021G35KT 4SM -SN BKN016 OVC030
     FM242300 32016G24KT P6SM OVC024
     FM250100 32016G25KT P6SM SCT025
     FM251000 28006KT P6SM SCT100
     FM251600 24007KT P6SM BKN040=



000
FTUS43 KMPX 241723
TAFSTC
TAF
KSTC 241723Z 2418/2518 32015G23KT P6SM BKN019 OVC035
      TEMPO 2418/2421 2SM -SN OVC015
     FM250000 31016KT P6SM OVC020
     FM250400 30012KT P6SM SCT020
     FM251100 30005KT P6SM SCT120=



000
FTUS43 KMPX 241723
TAFEAU
TAF
KEAU 241723Z 2418/2518 30015G22KT 1SM -SN BR OVC013
     FM241900 30015G22KT 4SM -SN OVC015
     FM242200 31016G27KT 6SM -SHSN OVC012
     FM250300 29009KT P6SM OVC015
     FM251200 26007KT P6SM SCT100=



000
FTUS43 KMPX 241723
TAFAXN
TAF
KAXN 241723Z 2418/2518 33018G26KT 5SM -SN OVC014
      TEMPO 2418/2421 2SM -SN OVC010
     FM242300 32014G24KT P6SM FEW020
     FM250400 31010KT P6SM SCT100
     FM251400 26005KT P6SM OVC040=



000
FTUS43 KMPX 241646 AAD
TAFEAU
TAF AMD
KEAU 241646Z 2417/2512 31015G22KT 1SM -SN BR OVC015
     FM241900 30015G22KT 4SM -SN OVC015
     FM242200 31016G27KT 6SM -SHSN OVC012
     FM250300 29009KT P6SM OVC015=



000
FTUS43 KMPX 241557 AAC
TAFAXN
TAF AMD
KAXN 241557Z 2416/2512 33019G30KT 6SM -SN OVC025
      TEMPO 2416/2418 2SM -SN OVC015
     FM242300 32014G24KT P6SM FEW015
     FM250400 31010KT P6SM SCT100
     FM251100 26005KT P6SM OVC100=



000
FTUS43 KMPX 241500 AAA
TAFRWF
TAF AMD
KRWF 241507Z 2415/2512 32022G34KT 6SM -SHSN OVC025
      TEMPO 2415/2418 3SM -SN BKN019
     FM250100 32016G25KT P6SM SCT015=



000
FTUS43 KMPX 241500 AAA
TAFEAU
TAF AMD
KEAU 241500Z 2415/2512 30012G20KT 3SM -SN BR OVC011
      TEMPO 2415/2418 1SM -SN BR OVC012
     FM242200 31016G27KT 6SM -SHSN OVC012 PROB30 2500/2501 2SM -FZDZ
      BR
     FM250300 29009KT P6SM OVC015=



000
FTUS43 KMPX 241459 AAC
TAFEAU
TAF AMD
KEAU 241459Z 2415/2512 30013KT 3/4SM -SN BR SCT007 OVC012
     FM241800 30015G22KT 2SM -SN BR OVC012
     FM242200 31016G27KT 6SM -SHSN OVC012
     FM250300 29009KT P6SM OVC015=



000
FTUS43 KMPX 241400 AAB
TAFMSP
TAF AMD
KMSP 241458Z 2415/2518 31021G29KT P6SM OVC015
     FM241600 31022G30KT P6SM OVC018
      TEMPO 2416/2419 4SM -SHSN OVC015
     FM241900 31020G30KT P6SM OVC018
     FM250500 31014KT P6SM SCT020
     FM251200 28005KT P6SM SCT100=



    US Dept of Commerce
    National Oceanic and Atmospheric Administration
    National Weather Service
    1325 East West Highway
    Silver Spring, MD 20910
    Page Author: NWS Internet Services Team
Disclaimer
Information Quality
Credits
Glossary
Privacy Policy
Freedom of Information Act (FOIA)
About Us
Career Opportunities